Time;durP1;ratioP1;P1;durP2;ratioP2;P2;SDS_P1;SDS_P2;PMS_P1;PMS_P2;Temp;Humidity;BMP_temperature;BMP_pressure;BME280_temperature;BME280_humidity;BME280_pressure;Samples;Min_cycle;Max_cycle;Signal;HPM_P1;HPM_P2
2019/10/01 00:01:58;;;;;;;1.73;1.40;;;;;;;20.51;56.37;100142.14;;;;-52
2019/10/01 00:04:59;;;;;;;1.84;1.43;;;;;;;20.51;56.41;100140.80;;;;-52
2019/10/01 00:07:59;;;;;;;1.50;1.40;;;;;;;20.50;56.41;100141.20;;;;-52
2019/10/01 00:10:58;;;;;;;1.40;1.30;;;;;;;20.51;56.41;100141.11;;;;-52
2019/10/01 00:13:58;;;;;;;1.69;1.54;;;;;;;20.50;56.38;100135.91;;;;-52
2019/10/01 00:16:59;;;;;;;1.49;1.39;;;;;;;20.50;56.36;100133.83;;;;-52
2019/10/01 00:19:59;;;;;;;1.49;1.38;;;;;;;20.49;56.39;100125.23;;;;-52
2019/10/01 00:22:59;;;;;;;1.49;1.34;;;;;;;20.50;56.37;100130.84;;;;-52
2019/10/01 00:25:58;;;;;;;1.58;1.40;;;;;;;20.49;56.37;100130.73;;;;-52
2019/10/01 00:28:58;;;;;;;1.53;1.43;;;;;;;20.49;56.40;100127.14;;;;-52
2019/10/01 00:31:59;;;;;;;1.63;1.50;;;;;;;20.49;56.40;100116.20;;;;-52
2019/10/01 00:34:59;;;;;;;1.43;1.33;;;;;;;20.48;56.39;100110.57;;;;-52
2019/10/01 00:38:00;;;;;;;2.49;1.44;;;;;;;20.48;56.41;100111.17;;;;-52
2019/10/01 00:40:58;;;;;;;1.61;1.50;;;;;;;20.47;56.37;100106.55;;;;-52
2019/10/01 00:44:00;;;;;;;1.55;1.35;;;;;;;20.47;56.36;100102.19;;;;-51
2019/10/01 00:46:59;;;;;;;1.50;1.40;;;;;;;20.47;56.37;100106.78;;;;-52
2019/10/01 00:50:00;;;;;;;1.70;1.40;;;;;;;20.47;56.37;100102.42;;;;-52
2019/10/01 00:52:59;;;;;;;1.45;1.35;;;;;;;20.46;56.40;100094.00;;;;-52
2019/10/01 00:56:06;;;;;;;1.59;1.49;;;;;;;20.46;56.37;100090.47;;;;-52
2019/10/01 00:58:59;;;;;;;1.53;1.43;;;;;;;20.47;56.38;100092.36;;;;-52
2019/10/01 01:01:58;;;;;;;1.79;1.35;;;;;;;20.45;56.35;100085.23;;;;-52
2019/10/01 01:04:58;;;;;;;1.53;1.43;;;;;;;20.45;56.37;100080.20;;;;-51
2019/10/01 01:07:58;;;;;;;1.56;1.40;;;;;;;20.45;56.36;100077.02;;;;-52
2019/10/01 01:10:58;;;;;;;1.45;1.35;;;;;;;20.44;56.36;100075.98;;;;-52
2019/10/01 01:13:58;;;;;;;1.47;1.37;;;;;;;20.44;56.34;100072.02;;;;-52
2019/10/01 01:17:00;;;;;;;1.49;1.39;;;;;;;20.44;56.37;100071.35;;;;-52
2019/10/01 01:19:59;;;;;;;2.41;1.49;;;;;;;20.44;56.37;100069.10;;;;-52
2019/10/01 01:22:59;;;;;;;1.50;1.40;;;;;;;20.43;56.36;100071.92;;;;-52
2019/10/01 01:26:00;;;;;;;1.82;1.40;;;;;;;20.44;56.34;100072.86;;;;-52
2019/10/01 01:28:59;;;;;;;1.91;1.40;;;;;;;20.43;56.36;100065.55;;;;-52
2019/10/01 01:31:59;;;;;;;1.61;1.51;;;;;;;20.43;56.35;100061.86;;;;-52
2019/10/01 01:34:59;;;;;;;1.53;1.43;;;;;;;20.43;56.35;100059.84;;;;-52
2019/10/01 01:37:59;;;;;;;1.60;1.50;;;;;;;20.42;56.35;100056.72;;;;-52
2019/10/01 01:40:59;;;;;;;1.50;1.40;;;;;;;20.42;56.35;100054.44;;;;-52
2019/10/01 01:43:58;;;;;;;1.53;1.43;;;;;;;20.41;56.33;100051.13;;;;-52
2019/10/01 01:47:00;;;;;;;1.70;1.50;;;;;;;20.41;56.33;100047.03;;;;-50
2019/10/01 01:49:59;;;;;;;1.71;1.51;;;;;;;20.40;56.32;100041.02;;;;-52
2019/10/01 01:52:58;;;;;;;1.37;1.27;;;;;;;20.41;56.31;100035.02;;;;-52
2019/10/01 01:55:59;;;;;;;1.94;1.40;;;;;;;20.40;56.32;100030.13;;;;-52
2019/10/01 01:58:58;;;;;;;1.52;1.42;;;;;;;20.40;56.34;100022.50;;;;-52
2019/10/01 02:01:59;;;;;;;1.52;1.35;;;;;;;20.40;56.32;100017.30;;;;-50
2019/10/01 02:05:01;;;;;;;1.58;1.45;;;;;;;20.40;56.33;100016.23;;;;-50
2019/10/01 02:07:59;;;;;;;1.54;1.44;;;;;;;20.40;56.31;100005.90;;;;-50
2019/10/01 02:10:59;;;;;;;1.58;1.40;;;;;;;20.38;56.32;99991.91;;;;-50
2019/10/01 02:13:58;;;;;;;1.50;1.40;;;;;;;20.38;56.36;99986.48;;;;-50
2019/10/01 02:16:59;;;;;;;1.47;1.37;;;;;;;20.37;56.33;99981.98;;;;-50
2019/10/01 02:19:58;;;;;;;1.47;1.37;;;;;;;20.38;56.32;99982.19;;;;-52
2019/10/01 02:22:59;;;;;;;1.41;1.31;;;;;;;20.38;56.35;99992.19;;;;-52
2019/10/01 02:25:59;;;;;;;1.95;1.40;;;;;;;20.38;56.33;99990.23;;;;-52
2019/10/01 02:28:58;;;;;;;1.45;1.35;;;;;;;20.37;56.32;99983.26;;;;-52
2019/10/01 02:31:58;;;;;;;1.86;1.33;;;;;;;20.36;56.33;99979.70;;;;-52
2019/10/01 02:34:59;;;;;;;1.46;1.31;;;;;;;20.37;56.29;99978.47;;;;-52
2019/10/01 02:37:58;;;;;;;1.39;1.29;;;;;;;20.36;56.32;99976.75;;;;-52
2019/10/01 02:40:59;;;;;;;1.62;1.45;;;;;;;20.37;56.30;99975.61;;;;-52
2019/10/01 02:43:59;;;;;;;1.43;1.33;;;;;;;20.36;56.29;99971.99;;;;-52
2019/10/01 02:47:00;;;;;;;1.76;1.40;;;;;;;20.35;56.31;99962.06;;;;-52
2019/10/01 02:50:00;;;;;;;1.60;1.34;;;;;;;20.36;56.30;99960.59;;;;-52
2019/10/01 02:52:59;;;;;;;1.41;1.31;;;;;;;20.35;56.30;99953.34;;;;-52
2019/10/01 02:55:59;;;;;;;1.45;1.35;;;;;;;20.35;56.29;99948.98;;;;-52
2019/10/01 02:58:59;;;;;;;1.40;1.30;;;;;;;20.35;56.32;99943.45;;;;-52
2019/10/01 03:02:01;;;;;;;1.46;1.30;;;;;;;20.34;56.29;99935.44;;;;-52
2019/10/01 03:04:59;;;;;;;2.18;1.41;;;;;;;20.35;56.27;99932.95;;;;-50
2019/10/01 03:07:58;;;;;;;1.40;1.30;;;;;;;20.34;56.31;99932.02;;;;-52
2019/10/01 03:11:00;;;;;;;1.40;1.30;;;;;;;20.34;56.28;99927.89;;;;-52
2019/10/01 03:13:59;;;;;;;1.50;1.40;;;;;;;20.35;56.27;99929.59;;;;-52
2019/10/01 03:16:58;;;;;;;1.45;1.35;;;;;;;20.35;56.29;99928.42;;;;-52
2019/10/01 03:19:59;;;;;;;1.45;1.35;;;;;;;20.34;56.28;99928.55;;;;-52
2019/10/01 03:23:04;;;;;;;1.61;1.44;;;;;;;20.34;56.24;99916.82;;;;-59
2019/10/01 03:26:01;;;;;;;1.51;1.40;;;;;;;20.34;56.28;99911.05;;;;-60
2019/10/01 03:28:58;;;;;;;1.55;1.45;;;;;;;20.33;56.27;99904.38;;;;-59
2019/10/01 03:31:58;;;;;;;1.44;1.34;;;;;;;20.33;56.25;99904.21;;;;-60
2019/10/01 03:34:58;;;;;;;1.40;1.30;;;;;;;20.33;56.25;99908.41;;;;-59
2019/10/01 03:37:58;;;;;;;1.46;1.25;;;;;;;20.33;56.23;99905.28;;;;-60
2019/10/01 03:40:59;;;;;;;1.47;1.37;;;;;;;20.33;56.27;99912.77;;;;-57
2019/10/01 03:43:59;;;;;;;1.40;1.30;;;;;;;20.33;56.23;99914.00;;;;-57
2019/10/01 03:46:59;;;;;;;1.45;1.35;;;;;;;20.32;56.25;99907.03;;;;-59
2019/10/01 03:49:58;;;;;;;1.40;1.30;;;;;;;20.32;56.25;99910.05;;;;-60
2019/10/01 03:52:59;;;;;;;1.67;1.20;;;;;;;20.33;56.26;99909.14;;;;-60
2019/10/01 03:55:59;;;;;;;1.45;1.34;;;;;;;20.32;56.24;99896.56;;;;-60
2019/10/01 03:58:58;;;;;;;1.43;1.33;;;;;;;20.32;56.22;99893.05;;;;-60
2019/10/01 04:01:59;;;;;;;1.49;1.39;;;;;;;20.32;56.22;99887.24;;;;-60
2019/10/01 04:04:58;;;;;;;1.40;1.30;;;;;;;20.32;56.24;99875.41;;;;-60
2019/10/01 04:07:58;;;;;;;1.47;1.37;;;;;;;20.31;56.22;99858.70;;;;-60
2019/10/01 04:10:58;;;;;;;1.35;1.25;;;;;;;20.32;56.20;99856.12;;;;-59
2019/10/01 04:13:58;;;;;;;1.45;1.21;;;;;;;20.32;56.21;99844.31;;;;-59
2019/10/01 04:16:59;;;;;;;1.43;1.33;;;;;;;20.31;56.24;99838.17;;;;-59
2019/10/01 04:19:59;;;;;;;1.82;1.33;;;;;;;20.31;56.19;99828.45;;;;-59
2019/10/01 04:22:58;;;;;;;1.38;1.28;;;;;;;20.31;56.22;99823.22;;;;-59
2019/10/01 04:25:59;;;;;;;1.40;1.30;;;;;;;20.30;56.24;99821.21;;;;-52
2019/10/01 04:28:58;;;;;;;1.37;1.27;;;;;;;20.30;56.23;99810.55;;;;-52
2019/10/01 04:31:59;;;;;;;1.63;1.44;;;;;;;20.29;56.23;99802.66;;;;-52
2019/10/01 04:35:00;;;;;;;1.50;1.40;;;;;;;20.30;56.18;99795.19;;;;-52
2019/10/01 04:38:01;;;;;;;1.57;1.47;;;;;;;20.29;56.21;99790.83;;;;-52
2019/10/01 04:40:58;;;;;;;1.31;1.21;;;;;;;20.29;56.23;99790.30;;;;-52
2019/10/01 04:44:00;;;;;;;1.39;1.27;;;;;;;20.30;56.24;99785.13;;;;-52
2019/10/01 04:46:58;;;;;;;1.30;1.22;;;;;;;20.31;56.23;99777.61;;;;-52
2019/10/01 04:49:58;;;;;;;1.41;1.31;;;;;;;20.29;56.22;99770.27;;;;-48
2019/10/01 04:52:58;;;;;;;1.49;1.30;;;;;;;20.29;56.22;99771.71;;;;-48
2019/10/01 04:56:00;;;;;;;1.40;1.30;;;;;;;20.29;56.19;99777.34;;;;-48
2019/10/01 04:58:59;;;;;;;1.37;1.27;;;;;;;20.29;56.20;99778.75;;;;-48
2019/10/01 05:01:59;;;;;;;1.40;1.30;;;;;;;20.29;56.19;99782.52;;;;-48
2019/10/01 05:04:58;;;;;;;1.40;1.30;;;;;;;20.28;56.20;99784.70;;;;-48
2019/10/01 05:07:59;;;;;;;1.44;1.34;;;;;;;20.30;56.20;99787.30;;;;-48
2019/10/01 05:10:59;;;;;;;1.31;1.22;;;;;;;20.29;56.20;99786.73;;;;-48
2019/10/01 05:14:00;;;;;;;1.74;1.37;;;;;;;20.29;56.21;99784.76;;;;-48
2019/10/01 05:16:59;;;;;;;1.47;1.37;;;;;;;20.29;56.19;99779.09;;;;-48
2019/10/01 05:19:59;;;;;;;1.30;1.20;;;;;;;20.28;56.19;99771.84;;;;-48
2019/10/01 05:22:58;;;;;;;1.41;1.31;;;;;;;20.28;56.21;99768.83;;;;-47
2019/10/01 05:25:59;;;;;;;1.40;1.30;;;;;;;20.27;56.23;99764.37;;;;-48
2019/10/01 05:28:58;;;;;;;1.50;1.40;;;;;;;20.28;56.20;99757.67;;;;-49
2019/10/01 05:31:58;;;;;;;1.40;1.30;;;;;;;20.27;56.21;99752.80;;;;-48
2019/10/01 05:34:59;;;;;;;1.34;1.23;;;;;;;20.28;56.20;99751.56;;;;-48
2019/10/01 05:37:59;;;;;;;1.31;1.21;;;;;;;20.28;56.19;99754.24;;;;-48
2019/10/01 05:40:58;;;;;;;1.30;1.20;;;;;;;20.28;56.22;99747.54;;;;-48
2019/10/01 05:43:58;;;;;;;1.27;1.19;;;;;;;20.28;56.20;99749.81;;;;-48
2019/10/01 05:46:58;;;;;;;1.24;1.17;;;;;;;20.27;56.18;99748.61;;;;-48
2019/10/01 05:49:59;;;;;;;1.38;1.21;;;;;;;20.27;56.21;99747.11;;;;-48
2019/10/01 05:52:58;;;;;;;1.41;1.31;;;;;;;20.27;56.19;99750.36;;;;-48
2019/10/01 05:55:58;;;;;;;1.30;1.20;;;;;;;20.27;56.20;99753.05;;;;-48
2019/10/01 05:58:59;;;;;;;1.39;1.29;;;;;;;20.27;56.19;99755.32;;;;-47
2019/10/01 06:01:59;;;;;;;1.33;1.23;;;;;;;20.27;56.17;99754.72;;;;-48
2019/10/01 06:04:59;;;;;;;1.29;1.20;;;;;;;20.27;56.18;99753.11;;;;-48
2019/10/01 06:07:58;;;;;;;1.28;1.20;;;;;;;20.27;56.17;99742.81;;;;-47
2019/10/01 06:10:58;;;;;;;1.33;1.23;;;;;;;20.27;56.22;99744.63;;;;-48
2019/10/01 06:13:58;;;;;;;1.24;1.15;;;;;;;20.27;56.17;99744.33;;;;-47
2019/10/01 06:16:58;;;;;;;1.48;1.20;;;;;;;20.25;56.20;99738.33;;;;-47
2019/10/01 06:19:58;;;;;;;1.35;1.24;;;;;;;20.26;56.18;99739.02;;;;-46
2019/10/01 06:22:58;;;;;;;1.30;1.20;;;;;;;20.26;56.21;99740.88;;;;-47
2019/10/01 06:25:58;;;;;;;1.09;1.09;;;;;;;20.26;56.20;99740.70;;;;-47
2019/10/01 06:28:58;;;;;;;1.30;1.20;;;;;;;20.26;56.18;99718.91;;;;-47
2019/10/01 06:31:59;;;;;;;1.31;1.21;;;;;;;20.26;56.17;99721.33;;;;-48
2019/10/01 06:34:58;;;;;;;1.30;1.20;;;;;;;20.25;56.16;99721.06;;;;-46
2019/10/01 06:37:58;;;;;;;1.39;1.29;;;;;;;20.26;56.18;99717.13;;;;-46
2019/10/01 06:40:59;;;;;;;1.30;1.20;;;;;;;20.26;56.16;99716.59;;;;-47
2019/10/01 06:43:59;;;;;;;1.30;1.20;;;;;;;20.26;56.18;99713.34;;;;-48
2019/10/01 06:46:58;;;;;;;1.27;1.20;;;;;;;20.26;56.18;99730.20;;;;-47
2019/10/01 06:49:58;;;;;;;1.23;1.17;;;;;;;20.26;56.18;99723.41;;;;-46
2019/10/01 06:52:58;;;;;;;1.30;1.20;;;;;;;20.26;56.20;99727.42;;;;-48
2019/10/01 06:55:58;;;;;;;1.35;1.25;;;;;;;20.26;56.18;99729.60;;;;-48
2019/10/01 06:58:58;;;;;;;1.51;1.12;;;;;;;20.26;56.19;99734.03;;;;-48
2019/10/01 07:01:58;;;;;;;1.37;1.27;;;;;;;20.26;56.18;99733.66;;;;-48
2019/10/01 07:04:59;;;;;;;1.47;1.24;;;;;;;20.26;56.20;99729.88;;;;-51
2019/10/01 07:07:58;;;;;;;1.44;1.34;;;;;;;20.25;56.18;99714.08;;;;-51
2019/10/01 07:10:58;;;;;;;1.29;1.21;;;;;;;20.26;56.19;99717.77;;;;-59
2019/10/01 07:13:58;;;;;;;1.30;1.20;;;;;;;20.25;56.21;99716.23;;;;-59
2019/10/01 07:16:58;;;;;;;1.30;1.20;;;;;;;20.24;56.21;99719.02;;;;-59
2019/10/01 07:19:58;;;;;;;1.21;1.20;;;;;;;20.25;56.20;99718.00;;;;-59
2019/10/01 07:22:58;;;;;;;1.34;1.24;;;;;;;20.25;56.18;99706.67;;;;-59
2019/10/01 07:25:58;;;;;;;1.31;1.21;;;;;;;20.25;56.19;99695.27;;;;-59
2019/10/01 07:28:58;;;;;;;1.30;1.20;;;;;;;20.25;56.24;99696.28;;;;-59
2019/10/01 07:31:58;;;;;;;1.29;1.19;;;;;;;20.24;56.22;99693.86;;;;-59
2019/10/01 07:34:58;;;;;;;1.31;1.21;;;;;;;20.25;56.19;99692.79;;;;-58
2019/10/01 07:37:58;;;;;;;1.41;1.31;;;;;;;20.25;56.22;99697.12;;;;-60
2019/10/01 07:40:58;;;;;;;1.30;1.20;;;;;;;20.24;56.21;99694.27;;;;-59
2019/10/01 07:43:58;;;;;;;1.29;1.20;;;;;;;20.24;56.21;99695.28;;;;-60
2019/10/01 07:46:58;;;;;;;1.21;1.13;;;;;;;20.24;56.19;99704.06;;;;-59
2019/10/01 07:49:58;;;;;;;1.10;1.10;;;;;;;20.25;56.19;99699.63;;;;-60
2019/10/01 07:52:58;;;;;;;1.21;1.15;;;;;;;20.24;56.21;99697.95;;;;-60
2019/10/01 07:55:58;;;;;;;1.26;1.19;;;;;;;20.24;56.21;99696.59;;;;-60
2019/10/01 07:58:59;;;;;;;1.31;1.21;;;;;;;20.24;56.21;99694.77;;;;-60
2019/10/01 08:01:58;;;;;;;1.30;1.20;;;;;;;20.25;56.23;99690.41;;;;-60
2019/10/01 08:04:59;;;;;;;1.12;1.12;;;;;;;20.24;56.23;99693.94;;;;-59
2019/10/01 08:07:58;;;;;;;1.34;1.20;;;;;;;20.24;56.22;99687.46;;;;-60
2019/10/01 08:10:58;;;;;;;1.29;1.20;;;;;;;20.24;56.23;99688.80;;;;-59
2019/10/01 08:13:58;;;;;;;1.40;1.30;;;;;;;20.23;56.23;99683.75;;;;-59
2019/10/01 08:16:58;;;;;;;1.25;1.18;;;;;;;20.24;56.24;99681.42;;;;-52
2019/10/01 08:19:58;;;;;;;1.23;1.14;;;;;;;20.23;56.20;99686.13;;;;-51
2019/10/01 08:22:59;;;;;;;1.07;1.07;;;;;;;20.24;56.23;99696.34;;;;-51
2019/10/01 08:25:58;;;;;;;1.15;1.10;;;;;;;20.23;56.25;99689.28;;;;-51
2019/10/01 08:28:58;;;;;;;1.41;1.31;;;;;;;20.25;56.20;99690.44;;;;-50
2019/10/01 08:31:58;;;;;;;1.21;1.11;;;;;;;20.26;56.17;99693.99;;;;-50
2019/10/01 08:34:58;;;;;;;1.89;1.32;;;;;;;20.28;56.25;99689.59;;;;-55
2019/10/01 08:37:58;;;;;;;1.38;1.28;;;;;;;20.29;56.24;99698.88;;;;-50
2019/10/01 08:40:59;;;;;;;3.22;1.43;;;;;;;20.32;56.53;99690.61;;;;-58
2019/10/01 08:43:58;;;;;;;1.39;1.29;;;;;;;20.32;56.42;99686.12;;;;-51
2019/10/01 08:46:59;;;;;;;2.63;1.48;;;;;;;20.35;56.61;99681.23;;;;-47
2019/10/01 08:49:58;;;;;;;2.98;1.37;;;;;;;20.37;56.62;99682.23;;;;-52
2019/10/01 08:52:58;;;;;;;1.88;1.33;;;;;;;20.40;56.72;99681.95;;;;-51
2019/10/01 08:55:58;;;;;;;2.96;1.43;;;;;;;20.43;56.66;99676.60;;;;-44
2019/10/01 08:58:59;;;;;;;11.49;1.73;;;;;;;20.45;56.70;99673.98;;;;-48
2019/10/01 09:01:58;;;;;;;2.42;1.39;;;;;;;20.47;56.84;99668.59;;;;-49
2019/10/01 09:04:59;;;;;;;4.37;1.53;;;;;;;20.48;56.91;99657.38;;;;-47
2019/10/01 09:07:58;;;;;;;4.81;1.48;;;;;;;20.48;56.73;99655.95;;;;-58
2019/10/01 09:10:58;;;;;;;4.09;1.69;;;;;;;20.49;56.94;99658.45;;;;-50
2019/10/01 09:13:59;;;;;;;3.38;1.51;;;;;;;20.51;56.76;99652.17;;;;-50
2019/10/01 09:16:58;;;;;;;2.77;1.40;;;;;;;20.51;56.77;99654.08;;;;-50
2019/10/01 09:19:59;;;;;;;2.59;1.30;;;;;;;20.51;56.66;99656.20;;;;-56
2019/10/01 09:22:59;;;;;;;3.58;1.50;;;;;;;20.54;56.71;99657.59;;;;-55
2019/10/01 09:25:58;;;;;;;3.59;1.30;;;;;;;20.53;56.80;99659.84;;;;-51
2019/10/01 09:28:58;;;;;;;3.86;1.50;;;;;;;20.53;56.67;99656.89;;;;-50
2019/10/01 09:31:58;;;;;;;3.93;1.50;;;;;;;20.53;56.65;99649.84;;;;-48
2019/10/01 09:34:58;;;;;;;3.38;1.38;;;;;;;20.53;56.61;99641.80;;;;-51
2019/10/01 09:37:58;;;;;;;1.79;1.47;;;;;;;20.53;56.57;99645.34;;;;-51
2019/10/01 09:40:58;;;;;;;2.55;1.45;;;;;;;20.53;56.47;99641.66;;;;-50
2019/10/01 09:43:58;;;;;;;2.40;1.51;;;;;;;20.53;56.43;99652.56;;;;-48
2019/10/01 09:46:58;;;;;;;2.58;1.40;;;;;;;20.52;56.35;99643.87;;;;-50
2019/10/01 09:49:58;;;;;;;1.98;1.40;;;;;;;20.53;56.37;99642.77;;;;-50
2019/10/01 09:52:58;;;;;;;1.61;1.40;;;;;;;20.52;56.35;99642.30;;;;-51
2019/10/01 09:55:58;;;;;;;3.10;1.33;;;;;;;20.52;56.28;99653.47;;;;-49
2019/10/01 09:58:59;;;;;;;1.61;1.36;;;;;;;20.52;56.30;99644.75;;;;-51
2019/10/01 10:01:58;;;;;;;4.57;1.52;;;;;;;20.51;56.25;99641.77;;;;-56
2019/10/01 10:04:58;;;;;;;2.92;1.30;;;;;;;20.51;56.24;99638.82;;;;-50
2019/10/01 10:07:58;;;;;;;1.59;1.45;;;;;;;20.51;56.21;99632.61;;;;-48
2019/10/01 10:10:58;;;;;;;3.17;1.54;;;;;;;20.51;56.21;99631.54;;;;-50
2019/10/01 10:13:58;;;;;;;1.59;1.30;;;;;;;20.51;56.20;99635.73;;;;-51
2019/10/01 10:16:59;;;;;;;1.63;1.23;;;;;;;20.51;56.16;99628.52;;;;-50
2019/10/01 10:19:58;;;;;;;2.36;1.37;;;;;;;20.52;56.13;99636.09;;;;-51
2019/10/01 10:22:59;;;;;;;1.90;1.40;;;;;;;20.50;56.16;99638.86;;;;-51
2019/10/01 10:25:58;;;;;;;1.35;1.22;;;;;;;20.51;56.13;99637.72;;;;-51
2019/10/01 10:28:58;;;;;;;1.96;1.34;;;;;;;20.52;56.08;99624.99;;;;-50
2019/10/01 10:31:58;;;;;;;1.37;1.27;;;;;;;20.50;56.08;99627.15;;;;-56
2019/10/01 10:34:58;;;;;;;2.85;1.41;;;;;;;20.51;56.07;99634.72;;;;-55
2019/10/01 10:37:58;;;;;;;1.40;1.30;;;;;;;20.52;56.05;99631.56;;;;-56
2019/10/01 10:40:59;;;;;;;2.19;1.40;;;;;;;20.52;56.01;99630.70;;;;-56
2019/10/01 10:43:58;;;;;;;2.02;1.25;;;;;;;20.51;56.02;99615.70;;;;-57
2019/10/01 10:46:58;;;;;;;2.03;1.25;;;;;;;20.50;56.00;99619.53;;;;-57
2019/10/01 10:49:58;;;;;;;1.42;1.20;;;;;;;20.51;56.03;99618.45;;;;-57
2019/10/01 10:52:58;;;;;;;1.34;1.20;;;;;;;20.50;56.01;99613.66;;;;-57
2019/10/01 10:55:58;;;;;;;1.87;1.30;;;;;;;20.52;56.03;99612.51;;;;-56
2019/10/01 10:58:58;;;;;;;2.63;1.31;;;;;;;20.52;56.14;99614.59;;;;-57
2019/10/01 11:01:58;;;;;;;1.41;1.27;;;;;;;20.52;56.13;99612.55;;;;-57
2019/10/01 11:04:58;;;;;;;3.02;1.23;;;;;;;20.53;56.07;99611.46;;;;-58
2019/10/01 11:07:58;;;;;;;2.63;1.30;;;;;;;20.53;56.13;99600.23;;;;-58
2019/10/01 11:10:58;;;;;;;3.71;1.29;;;;;;;20.56;56.15;99591.72;;;;-58
2019/10/01 11:13:58;;;;;;;2.90;1.36;;;;;;;20.56;56.15;99596.28;;;;-51
2019/10/01 11:16:58;;;;;;;3.83;1.49;;;;;;;20.55;56.13;99598.60;;;;-51
2019/10/01 11:19:58;;;;;;;4.31;1.31;;;;;;;20.55;56.12;99596.31;;;;-51
2019/10/01 11:22:58;;;;;;;4.75;1.41;;;;;;;20.55;56.08;99592.80;;;;-51
2019/10/01 11:25:58;;;;;;;2.59;1.30;;;;;;;20.56;56.04;99595.67;;;;-51
2019/10/01 11:28:58;;;;;;;4.50;1.47;;;;;;;20.55;56.10;99585.92;;;;-51
2019/10/01 11:31:58;;;;;;;1.76;1.27;;;;;;;20.56;56.03;99579.23;;;;-51
2019/10/01 11:34:58;;;;;;;2.55;1.31;;;;;;;20.56;56.03;99562.70;;;;-51
2019/10/01 11:37:58;;;;;;;3.43;1.33;;;;;;;20.54;56.05;99568.52;;;;-58
2019/10/01 11:40:58;;;;;;;2.07;1.45;;;;;;;20.55;56.00;99562.09;;;;-51
2019/10/01 11:43:58;;;;;;;1.82;1.36;;;;;;;20.55;55.99;99564.11;;;;-51
2019/10/01 11:46:58;;;;;;;2.49;1.30;;;;;;;20.56;55.96;99561.13;;;;-51
2019/10/01 11:49:58;;;;;;;1.59;1.29;;;;;;;20.55;55.97;99557.57;;;;-51
2019/10/01 11:52:58;;;;;;;4.23;1.48;;;;;;;20.55;55.97;99551.60;;;;-51
2019/10/01 11:55:58;;;;;;;3.89;1.42;;;;;;;20.55;55.96;99540.30;;;;-51
2019/10/01 11:58:58;;;;;;;1.88;1.40;;;;;;;20.54;55.95;99541.30;;;;-51
2019/10/01 12:01:58;;;;;;;1.72;1.40;;;;;;;20.55;55.94;99533.16;;;;-51
2019/10/01 12:04:58;;;;;;;4.25;1.43;;;;;;;20.56;56.05;99528.52;;;;-49
2019/10/01 12:07:58;;;;;;;2.29;1.36;;;;;;;20.58;56.08;99517.56;;;;-48
2019/10/01 12:10:58;;;;;;;5.24;1.37;;;;;;;20.58;56.16;99514.30;;;;-49
2019/10/01 12:13:58;;;;;;;2.67;1.44;;;;;;;20.60;56.20;99522.64;;;;-58
2019/10/01 12:16:58;;;;;;;2.67;1.48;;;;;;;20.60;56.20;99516.44;;;;-60
2019/10/01 12:19:58;;;;;;;3.39;1.40;;;;;;;20.60;56.28;99513.91;;;;-45
2019/10/01 12:22:58;;;;;;;3.45;1.40;;;;;;;20.63;56.30;99502.31;;;;-49
2019/10/01 12:25:58;;;;;;;5.94;1.30;;;;;;;20.63;56.25;99498.22;;;;-45
2019/10/01 12:28:58;;;;;;;6.01;1.54;;;;;;;20.65;56.32;99495.59;;;;-50
2019/10/01 12:31:58;;;;;;;3.24;1.35;;;;;;;20.65;56.45;99490.55;;;;-47
2019/10/01 12:34:58;;;;;;;3.07;1.39;;;;;;;20.67;56.42;99484.80;;;;-50
2019/10/01 12:37:58;;;;;;;2.71;1.30;;;;;;;20.67;56.41;99488.59;;;;-50
2019/10/01 12:40:58;;;;;;;3.78;1.50;;;;;;;20.67;56.37;99486.07;;;;-44
2019/10/01 12:43:58;;;;;;;3.15;1.44;;;;;;;20.68;56.41;99484.66;;;;-45
2019/10/01 12:46:58;;;;;;;5.41;1.41;;;;;;;20.67;56.32;99477.75;;;;-45
2019/10/01 12:49:58;;;;;;;2.55;1.36;;;;;;;20.67;56.28;99474.91;;;;-47
2019/10/01 12:52:58;;;;;;;4.03;1.49;;;;;;;20.67;56.29;99471.98;;;;-46
2019/10/01 12:55:58;;;;;;;2.87;1.37;;;;;;;20.66;56.20;99466.75;;;;-46
2019/10/01 12:58:58;;;;;;;2.69;1.54;;;;;;;20.66;56.14;99460.28;;;;-46
2019/10/01 13:01:59;;;;;;;3.39;1.37;;;;;;;20.66;56.17;99454.08;;;;-46
2019/10/01 13:04:58;;;;;;;1.98;1.49;;;;;;;20.65;56.10;99453.81;;;;-46
2019/10/01 13:07:58;;;;;;;1.95;1.29;;;;;;;20.65;56.11;99465.63;;;;-46
2019/10/01 13:10:58;;;;;;;1.76;1.35;;;;;;;20.65;56.10;99463.44;;;;-46
2019/10/01 13:13:58;;;;;;;1.57;1.29;;;;;;;20.64;56.07;99460.50;;;;-46
2019/10/01 13:16:58;;;;;;;2.95;1.33;;;;;;;20.63;56.11;99461.66;;;;-47
2019/10/01 13:19:58;;;;;;;2.48;1.26;;;;;;;20.63;56.09;99454.00;;;;-46
2019/10/01 13:22:58;;;;;;;1.79;1.27;;;;;;;20.64;56.06;99448.59;;;;-47
2019/10/01 13:25:58;;;;;;;1.57;1.17;;;;;;;20.62;56.03;99450.16;;;;-46
2019/10/01 13:28:58;;;;;;;2.19;1.25;;;;;;;20.62;56.01;99454.24;;;;-50
2019/10/01 13:31:58;;;;;;;2.21;1.37;;;;;;;20.63;56.03;99451.48;;;;-55
2019/10/01 13:34:58;;;;;;;2.19;1.31;;;;;;;20.62;55.98;99443.52;;;;-49
2019/10/01 13:37:58;;;;;;;1.88;1.45;;;;;;;20.63;55.98;99439.41;;;;-47
2019/10/01 13:40:58;;;;;;;1.86;1.20;;;;;;;20.63;55.98;99436.23;;;;-48
2019/10/01 13:43:58;;;;;;;2.49;1.27;;;;;;;20.63;55.93;99437.16;;;;-48
2019/10/01 13:46:58;;;;;;;1.96;1.24;;;;;;;20.62;55.98;99440.66;;;;-49
2019/10/01 13:49:58;;;;;;;1.48;1.29;;;;;;;20.61;55.94;99429.56;;;;-45
2019/10/01 13:52:58;;;;;;;1.65;1.30;;;;;;;20.64;56.09;99424.67;;;;-50
2019/10/01 13:55:58;;;;;;;4.25;1.55;;;;;;;20.61;56.10;99412.78;;;;-49
2019/10/01 13:58:58;;;;;;;1.85;1.30;;;;;;;20.64;56.33;99406.31;;;;-50
2019/10/01 14:01:58;;;;;;;1.81;1.35;;;;;;;20.66;56.34;99402.23;;;;-47
2019/10/01 14:04:58;;;;;;;3.69;1.31;;;;;;;20.67;56.48;99401.26;;;;-47
2019/10/01 14:07:58;;;;;;;4.13;1.27;;;;;;;20.67;56.48;99401.75;;;;-50
2019/10/01 14:10:58;;;;;;;4.31;1.36;;;;;;;20.68;56.50;99391.55;;;;-47
2019/10/01 14:13:58;;;;;;;4.46;1.40;;;;;;;20.70;56.42;99389.68;;;;-47
2019/10/01 14:16:58;;;;;;;2.27;1.41;;;;;;;20.71;56.38;99389.94;;;;-47
2019/10/01 14:19:58;;;;;;;3.20;1.45;;;;;;;20.69;56.35;99375.63;;;;-45
2019/10/01 14:22:58;;;;;;;2.45;1.40;;;;;;;20.70;56.42;99372.30;;;;-48
2019/10/01 14:25:58;;;;;;;3.55;1.31;;;;;;;20.72;56.43;99367.48;;;;-48
2019/10/01 14:28:58;;;;;;;3.78;1.51;;;;;;;20.72;56.50;99368.08;;;;-46
2019/10/01 14:31:58;;;;;;;2.40;1.30;;;;;;;20.73;56.65;99357.59;;;;-46
2019/10/01 14:34:58;;;;;;;3.77;1.45;;;;;;;20.75;56.56;99346.41;;;;-48
2019/10/01 14:37:58;;;;;;;2.06;1.45;;;;;;;20.73;56.57;99338.14;;;;-47
2019/10/01 14:40:58;;;;;;;5.37;1.35;;;;;;;20.73;56.74;99331.77;;;;-44
2019/10/01 14:43:58;;;;;;;4.27;1.57;;;;;;;20.73;56.70;99333.34;;;;-50
2019/10/01 14:46:58;;;;;;;3.47;1.41;;;;;;;20.74;56.66;99327.69;;;;-49
2019/10/01 14:49:58;;;;;;;4.03;1.33;;;;;;;20.76;56.77;99322.67;;;;-49
2019/10/01 14:52:58;;;;;;;9.39;1.45;;;;;;;20.75;56.61;99329.05;;;;-52
2019/10/01 14:55:58;;;;;;;3.37;1.41;;;;;;;20.77;56.78;99331.08;;;;-52
2019/10/01 14:58:58;;;;;;;5.01;1.61;;;;;;;20.75;56.68;99328.04;;;;-52
2019/10/01 15:01:58;;;;;;;4.57;1.43;;;;;;;20.75;56.70;99321.91;;;;-52
2019/10/01 15:04:58;;;;;;;2.24;1.40;;;;;;;20.75;56.46;99309.99;;;;-53
2019/10/01 15:07:58;;;;;;;4.17;1.59;;;;;;;20.76;56.55;99307.50;;;;-52
2019/10/01 15:10:59;;;;;;;3.31;1.40;;;;;;;20.77;56.61;99302.89;;;;-49
2019/10/01 15:13:58;;;;;;;4.43;1.59;;;;;;;20.77;56.60;99297.88;;;;-48
2019/10/01 15:16:58;;;;;;;2.44;1.40;;;;;;;20.77;56.74;99286.81;;;;-52
2019/10/01 15:19:58;;;;;;;4.78;1.58;;;;;;;20.78;56.77;99281.96;;;;-51
2019/10/01 15:22:58;;;;;;;3.47;1.53;;;;;;;20.79;56.71;99275.25;;;;-48
2019/10/01 15:25:58;;;;;;;3.55;1.49;;;;;;;20.79;56.90;99271.98;;;;-51
2019/10/01 15:28:58;;;;;;;6.71;1.74;;;;;;;20.81;56.84;99255.88;;;;-51
2019/10/01 15:31:58;;;;;;;2.34;1.40;;;;;;;20.82;56.89;99253.27;;;;-49
2019/10/01 15:34:58;;;;;;;5.58;1.47;;;;;;;20.83;56.68;99259.69;;;;-48
2019/10/01 15:37:58;;;;;;;5.18;1.47;;;;;;;20.83;56.81;99259.48;;;;-54
2019/10/01 15:40:59;;;;;;;2.81;1.41;;;;;;;20.85;56.95;99259.70;;;;-52
2019/10/01 15:43:58;;;;;;;2.60;1.33;;;;;;;20.85;56.94;99258.45;;;;-51
2019/10/01 15:46:58;;;;;;;2.55;1.28;;;;;;;20.85;56.90;99258.48;;;;-50
2019/10/01 15:49:58;;;;;;;5.21;1.47;;;;;;;20.86;56.88;99255.86;;;;-50
2019/10/01 15:52:58;;;;;;;3.31;1.51;;;;;;;20.87;56.84;99252.05;;;;-51
2019/10/01 15:55:58;;;;;;;7.57;1.51;;;;;;;20.86;56.86;99262.23;;;;-50
2019/10/01 15:58:58;;;;;;;3.57;1.49;;;;;;;20.85;56.92;99256.27;;;;-51
2019/10/01 16:01:58;;;;;;;5.52;1.59;;;;;;;20.85;56.76;99252.34;;;;-53
2019/10/01 16:04:58;;;;;;;3.07;1.62;;;;;;;20.84;56.75;99260.13;;;;-53
2019/10/01 16:07:58;;;;;;;4.10;1.57;;;;;;;20.83;56.77;99255.08;;;;-51
2019/10/01 16:10:58;;;;;;;6.09;1.43;;;;;;;20.84;56.59;99256.42;;;;-51
2019/10/01 16:13:58;;;;;;;3.65;1.55;;;;;;;20.83;56.61;99256.73;;;;-51
2019/10/01 16:16:58;;;;;;;6.99;1.72;;;;;;;20.82;56.69;99256.55;;;;-51
2019/10/01 16:19:58;;;;;;;3.47;1.34;;;;;;;20.83;56.57;99267.33;;;;-51
2019/10/01 16:22:58;;;;;;;4.55;1.48;;;;;;;20.84;56.65;99275.21;;;;-51
2019/10/01 16:25:58;;;;;;;3.89;1.61;;;;;;;20.84;56.64;99271.88;;;;-49
2019/10/01 16:28:58;;;;;;;3.34;1.39;;;;;;;20.86;56.72;99266.12;;;;-50
2019/10/01 16:31:58;;;;;;;2.67;1.40;;;;;;;20.86;56.76;99264.37;;;;-48
2019/10/01 16:34:58;;;;;;;3.51;1.48;;;;;;;20.87;56.85;99314.03;;;;-47
2019/10/01 16:37:58;;;;;;;1.84;1.31;;;;;;;20.89;56.79;99411.41;;;;-48
2019/10/01 16:40:58;;;;;;;4.65;1.73;;;;;;;20.87;56.82;99416.84;;;;-48
2019/10/01 16:43:58;;;;;;;2.60;1.31;;;;;;;20.87;56.85;99415.90;;;;-48
2019/10/01 16:46:58;;;;;;;3.50;1.55;;;;;;;20.86;56.83;99422.08;;;;-48
2019/10/01 16:49:58;;;;;;;4.59;1.51;;;;;;;20.85;56.74;99420.72;;;;-48
2019/10/01 16:52:58;;;;;;;2.47;1.41;;;;;;;20.85;56.76;99416.79;;;;-48
2019/10/01 16:55:58;;;;;;;2.88;1.54;;;;;;;20.85;56.69;99404.17;;;;-47